Time;durP1;ratioP1;P1;durP2;ratioP2;P2;SDS_P1;SDS_P2;PMS_P1;PMS_P2;Temp;Humidity;BMP_temperature;BMP_pressure;BME280_temperature;BME280_humidity;BME280_pressure;Samples;Min_cycle;Max_cycle;Signal;HPM_P1;HPM_P2
2023/01/27 00:00:48;;;;;;;3.22;2.08;;;;;;;;;;5063097;28;20032;-41
2023/01/27 00:03:14;;;;;;;3.00;2.10;;;;;;;;;;5066759;28;20033;-41
2023/01/27 00:05:40;;;;;;;2.40;1.80;;;;;;;;;;5058039;28;20056;-41
2023/01/27 00:08:06;;;;;;;5.97;2.60;;;;;;;;;;5045910;28;20036;-41
2023/01/27 00:10:32;;;;;;;3.03;1.95;;;;;;;;;;5057001;28;20033;-42
2023/01/27 00:15:42;;;;;;;3.95;2.40;;;;;;;;;;5052550;28;20100;-42
2023/01/27 00:18:09;;;;;;;2.97;2.03;;;;;;;;;;5042200;28;20033;-41
2023/01/27 00:26:08;;;;;;;3.38;2.28;;;;;;;;;;5038046;28;20405;-41
2023/01/27 00:28:37;;;;;;;2.78;1.95;;;;;;;;;;5038693;28;20418;-41
2023/01/27 00:31:04;;;;;;;3.40;2.08;;;;;;;;;;5032518;28;20060;-42
2023/01/27 00:33:30;;;;;;;2.55;1.98;;;;;;;;;;5059992;28;20100;-41
2023/01/27 00:35:58;;;;;;;3.22;2.40;;;;;;;;;;5060984;28;20036;-41
2023/01/27 00:38:24;;;;;;;3.33;2.35;;;;;;;;;;5060348;28;20029;-41
2023/01/27 00:41:14;;;;;;;2.97;2.08;;;;;;;;;;5060806;28;20028;-41
2023/01/27 00:43:36;;;;;;;2.97;1.83;;;;;;;;;;5055705;28;20390;-41
2023/01/27 00:46:02;;;;;;;2.97;1.75;;;;;;;;;;5058644;28;20024;-41
2023/01/27 00:48:28;;;;;;;3.25;2.00;;;;;;;;;;5058822;28;20033;-41
2023/01/27 00:50:54;;;;;;;3.25;2.20;;;;;;;;;;5056707;28;20032;-42
2023/01/27 00:53:20;;;;;;;2.95;1.85;;;;;;;;;;5060969;28;20143;-42
2023/01/27 00:55:46;;;;;;;4.82;2.22;;;;;;;;;;5057969;28;20083;-41
2023/01/27 00:58:12;;;;;;;3.10;2.20;;;;;;;;;;5050957;28;20036;-41
2023/01/27 01:00:38;;;;;;;2.83;2.00;;;;;;;;;;5045461;28;20070;-42
2023/01/27 01:03:04;;;;;;;2.35;2.10;;;;;;;;;;5051409;28;20029;-41
2023/01/27 01:05:30;;;;;;;3.75;2.25;;;;;;;;;;5063698;28;20072;-41
2023/01/27 01:07:56;;;;;;;4.38;3.00;;;;;;;;;;5052756;28;20068;-41
2023/01/27 01:10:22;;;;;;;4.05;2.30;;;;;;;;;;5070653;28;20067;-41
2023/01/27 01:12:48;;;;;;;3.47;2.17;;;;;;;;;;5070618;28;20036;-41
2023/01/27 01:15:14;;;;;;;3.38;2.40;;;;;;;;;;5070939;28;20035;-41
2023/01/27 01:17:40;;;;;;;2.65;1.77;;;;;;;;;;5065844;28;20043;-41
2023/01/27 01:20:06;;;;;;;2.90;1.85;;;;;;;;;;5069890;28;20024;-41
2023/01/27 01:22:32;;;;;;;3.20;1.90;;;;;;;;;;5065508;28;20031;-41
2023/01/27 01:24:58;;;;;;;3.70;2.40;;;;;;;;;;5064884;28;20060;-41
2023/01/27 01:27:25;;;;;;;3.40;2.50;;;;;;;;;;5073035;28;20048;-41
2023/01/27 01:29:51;;;;;;;2.85;2.25;;;;;;;;;;5069582;28;20035;-41
2023/01/27 01:32:17;;;;;;;2.85;2.10;;;;;;;;;;5058699;28;20033;-42
2023/01/27 01:34:43;;;;;;;2.55;1.80;;;;;;;;;;5068052;28;20033;-41
2023/01/27 01:37:09;;;;;;;3.35;2.00;;;;;;;;;;5069105;28;20108;-41
2023/01/27 01:39:35;;;;;;;3.28;2.08;;;;;;;;;;5069092;28;20091;-41
2023/01/27 01:42:01;;;;;;;3.63;2.30;;;;;;;;;;5071373;28;20024;-41
2023/01/27 01:44:28;;;;;;;2.30;2.00;;;;;;;;;;5069518;28;20020;-41
2023/01/27 01:46:54;;;;;;;2.97;1.92;;;;;;;;;;5069929;28;20024;-41
2023/01/27 01:49:23;;;;;;;4.05;2.15;;;;;;;;;;5066304;28;20355;-42
2023/01/27 01:52:01;;;;;;;3.03;2.22;;;;;;;;;;5064810;28;20047;-41
2023/01/27 01:54:29;;;;;;;3.65;2.10;;;;;;;;;;5070288;28;20056;-41
2023/01/27 01:56:57;;;;;;;3.90;2.15;;;;;;;;;;5067975;28;20123;-41
2023/01/27 01:59:25;;;;;;;3.28;2.33;;;;;;;;;;5062844;28;20378;-41
2023/01/27 02:01:53;;;;;;;3.95;2.97;;;;;;;;;;5058322;28;20052;-41
2023/01/27 02:04:24;;;;;;;4.05;2.70;;;;;;;;;;5069388;28;20055;-41
2023/01/27 02:06:54;;;;;;;3.92;2.28;;;;;;;;;;5070101;28;20109;-41
2023/01/27 02:09:20;;;;;;;2.60;1.88;;;;;;;;;;5070424;28;20381;-42
2023/01/27 02:11:47;;;;;;;2.63;2.05;;;;;;;;;;5066408;28;20465;-42
2023/01/27 02:14:14;;;;;;;2.83;1.80;;;;;;;;;;5069832;28;20485;-43
2023/01/27 02:16:40;;;;;;;3.10;2.40;;;;;;;;;;5061550;28;20024;-42
2023/01/27 02:19:09;;;;;;;2.72;2.08;;;;;;;;;;5070394;28;20466;-42
2023/01/27 02:21:35;;;;;;;3.30;2.25;;;;;;;;;;5069651;28;20050;-42
2023/01/27 02:24:09;;;;;;;2.53;2.00;;;;;;;;;;5067192;28;20028;-43
2023/01/27 02:26:42;;;;;;;3.38;2.30;;;;;;;;;;5069740;28;20021;-42
2023/01/27 02:29:09;;;;;;;3.50;2.08;;;;;;;;;;5067406;28;20099;-42
2023/01/27 02:31:35;;;;;;;2.78;1.92;;;;;;;;;;5063937;28;20108;-42
2023/01/27 02:34:07;;;;;;;4.50;2.20;;;;;;;;;;5071320;28;20158;-44
2023/01/27 02:36:35;;;;;;;3.20;2.10;;;;;;;;;;5070856;28;20050;-42
2023/01/27 02:39:01;;;;;;;2.50;1.75;;;;;;;;;;5057088;28;20091;-43
2023/01/27 02:41:31;;;;;;;3.45;2.22;;;;;;;;;;5070391;28;20040;-43
2023/01/27 02:43:56;;;;;;;3.97;2.20;;;;;;;;;;5069608;28;20021;-43
2023/01/27 02:46:22;;;;;;;3.17;1.70;;;;;;;;;;5070286;28;20031;-43
2023/01/27 02:48:48;;;;;;;2.90;1.83;;;;;;;;;;5056280;28;20078;-42
2023/01/27 02:51:15;;;;;;;3.60;2.33;;;;;;;;;;5061392;28;20067;-43
2023/01/27 02:53:41;;;;;;;2.13;1.70;;;;;;;;;;5072976;28;20050;-42
2023/01/27 02:56:07;;;;;;;3.28;2.33;;;;;;;;;;5073731;28;20466;-43
2023/01/27 02:58:33;;;;;;;2.35;1.88;;;;;;;;;;5067546;28;20107;-44
2023/01/27 03:00:59;;;;;;;3.90;2.17;;;;;;;;;;5060197;28;20111;-43
2023/01/27 03:03:25;;;;;;;3.35;2.05;;;;;;;;;;5074267;28;20385;-42
2023/01/27 03:05:51;;;;;;;3.58;2.13;;;;;;;;;;5057393;28;20044;-42
2023/01/27 03:08:18;;;;;;;3.45;2.13;;;;;;;;;;5064651;28;20025;-42
2023/01/27 03:10:44;;;;;;;2.00;1.63;;;;;;;;;;5069020;28;20552;-42
2023/01/27 03:13:10;;;;;;;3.47;2.03;;;;;;;;;;5073861;28;20020;-42
2023/01/27 03:18:21;;;;;;;2.80;1.85;;;;;;;;;;5066801;28;20085;-42
2023/01/27 03:20:48;;;;;;;2.83;1.75;;;;;;;;;;5072390;28;20107;-43
2023/01/27 03:23:15;;;;;;;2.85;2.08;;;;;;;;;;5073455;28;20047;-42
2023/01/27 03:25:45;;;;;;;2.70;1.90;;;;;;;;;;5071617;28;20036;-42
2023/01/27 03:28:11;;;;;;;2.75;1.83;;;;;;;;;;5073680;28;20029;-43
2023/01/27 03:30:37;;;;;;;1.73;1.35;;;;;;;;;;5069471;28;20039;-42
2023/01/27 03:33:04;;;;;;;2.63;1.70;;;;;;;;;;5077514;28;20024;-42
2023/01/27 03:35:37;;;;;;;2.58;2.05;;;;;;;;;;5074427;28;20047;-42
2023/01/27 03:46:18;;;;;;;3.17;1.98;;;;;;;;;;5066501;28;20558;-42
2023/01/27 03:48:44;;;;;;;3.17;2.10;;;;;;;;;;5071903;28;20165;-43
2023/01/27 03:51:11;;;;;;;3.38;2.53;;;;;;;;;;5072783;28;20025;-42
2023/01/27 03:53:37;;;;;;;3.33;2.17;;;;;;;;;;5064574;28;20017;-42
2023/01/27 03:56:04;;;;;;;4.13;2.22;;;;;;;;;;5072771;28;20055;-43
2023/01/27 03:58:31;;;;;;;3.08;2.17;;;;;;;;;;5072759;28;20038;-42
2023/01/27 04:00:59;;;;;;;2.80;1.90;;;;;;;;;;5061401;28;20344;-42
2023/01/27 04:08:57;;;;;;;2.33;1.80;;;;;;;;;;5066018;28;20074;-43
2023/01/27 04:14:09;;;;;;;3.03;2.33;;;;;;;;;;5061624;28;20071;-42
2023/01/27 04:16:35;;;;;;;3.40;2.17;;;;;;;;;;5072938;28;20033;-42
2023/01/27 04:19:02;;;;;;;2.65;1.70;;;;;;;;;;5062204;28;20115;-43
2023/01/27 04:21:29;;;;;;;2.95;2.08;;;;;;;;;;5062491;28;20028;-42
2023/01/27 04:23:55;;;;;;;2.38;1.63;;;;;;;;;;5071324;28;20624;-44
2023/01/27 04:26:21;;;;;;;4.03;2.28;;;;;;;;;;5063006;28;20037;-42
2023/01/27 04:28:47;;;;;;;4.50;2.30;;;;;;;;;;5067903;28;20033;-43
2023/01/27 04:31:14;;;;;;;3.65;2.08;;;;;;;;;;5072678;28;20062;-44
2023/01/27 04:33:40;;;;;;;3.00;1.90;;;;;;;;;;5077746;28;20039;-45
2023/01/27 04:36:06;;;;;;;3.55;1.83;;;;;;;;;;5072764;28;20444;-43
2023/01/27 04:38:32;;;;;;;3.22;2.33;;;;;;;;;;5065386;28;20111;-43
2023/01/27 04:40:58;;;;;;;2.17;1.83;;;;;;;;;;5046472;28;20147;-43
2023/01/27 04:43:24;;;;;;;2.60;2.17;;;;;;;;;;5070528;28;20029;-43
2023/01/27 04:45:50;;;;;;;2.67;1.88;;;;;;;;;;5068116;28;20138;-44
2023/01/27 04:48:16;;;;;;;2.60;1.92;;;;;;;;;;5072378;28;20079;-44
2023/01/27 04:50:42;;;;;;;3.17;2.00;;;;;;;;;;5070695;28;20032;-43
2023/01/27 04:53:08;;;;;;;3.75;2.33;;;;;;;;;;5070451;28;20040;-44
2023/01/27 04:55:34;;;;;;;2.05;1.65;;;;;;;;;;5054882;28;20029;-43
2023/01/27 04:58:00;;;;;;;3.78;2.05;;;;;;;;;;5066638;28;20025;-42
2023/01/27 05:00:27;;;;;;;2.47;1.90;;;;;;;;;;5067858;28;20067;-43
2023/01/27 05:02:53;;;;;;;2.72;1.85;;;;;;;;;;5071175;28;20048;-42
2023/01/27 05:05:19;;;;;;;3.13;2.25;;;;;;;;;;5070603;28;20473;-43
2023/01/27 05:07:45;;;;;;;3.10;1.85;;;;;;;;;;5070851;28;20699;-42
2023/01/27 05:10:11;;;;;;;3.25;2.08;;;;;;;;;;5062047;28;20107;-42
2023/01/27 05:12:37;;;;;;;2.40;1.60;;;;;;;;;;5058367;28;20057;-42
2023/01/27 05:15:03;;;;;;;3.55;2.20;;;;;;;;;;5069128;28;20071;-42
2023/01/27 05:17:33;;;;;;;1.58;1.45;;;;;;;;;;5071418;28;20032;-42
2023/01/27 05:19:59;;;;;;;2.42;1.73;;;;;;;;;;5070154;28;20485;-42
2023/01/27 05:22:25;;;;;;;2.40;1.80;;;;;;;;;;5068218;28;20098;-42
2023/01/27 05:24:51;;;;;;;2.38;1.77;;;;;;;;;;5069909;28;20067;-43
2023/01/27 05:27:17;;;;;;;2.55;1.70;;;;;;;;;;5070779;28;20475;-43
2023/01/27 05:29:43;;;;;;;2.60;1.90;;;;;;;;;;5070244;28;20030;-43
2023/01/27 05:32:09;;;;;;;2.72;1.85;;;;;;;;;;5069135;28;20500;-42
2023/01/27 05:34:35;;;;;;;2.78;2.00;;;;;;;;;;5069918;28;20028;-42
2023/01/27 05:37:01;;;;;;;3.50;1.90;;;;;;;;;;5070870;28;20024;-43
2023/01/27 05:39:27;;;;;;;2.97;1.70;;;;;;;;;;5070396;28;20025;-42
2023/01/27 05:41:53;;;;;;;3.58;2.20;;;;;;;;;;5069149;28;20058;-43
2023/01/27 05:44:19;;;;;;;3.13;2.10;;;;;;;;;;5070837;28;20040;-42
2023/01/27 05:46:45;;;;;;;3.53;2.10;;;;;;;;;;5070006;28;20025;-42
2023/01/27 05:49:11;;;;;;;3.25;1.92;;;;;;;;;;5062189;28;20028;-42
2023/01/27 05:51:41;;;;;;;2.53;1.95;;;;;;;;;;5066531;28;20658;-42
2023/01/27 05:54:08;;;;;;;2.88;1.80;;;;;;;;;;5069814;28;20028;-43
2023/01/27 05:56:33;;;;;;;3.50;1.85;;;;;;;;;;5062960;28;20035;-43
2023/01/27 05:59:00;;;;;;;2.85;1.92;;;;;;;;;;5069888;28;20024;-43
2023/01/27 06:01:27;;;;;;;3.15;2.05;;;;;;;;;;5061287;28;20033;-42
2023/01/27 06:03:53;;;;;;;2.55;1.98;;;;;;;;;;5067906;28;20077;-43
2023/01/27 06:06:20;;;;;;;2.80;2.10;;;;;;;;;;5071227;28;20020;-42
2023/01/27 06:08:46;;;;;;;1.90;1.70;;;;;;;;;;5069697;28;20037;-43
2023/01/27 06:11:12;;;;;;;2.92;2.03;;;;;;;;;;5061431;28;20505;-42
2023/01/27 06:13:39;;;;;;;2.35;2.08;;;;;;;;;;5064004;28;20039;-42
2023/01/27 06:16:06;;;;;;;3.97;2.22;;;;;;;;;;5071184;28;20477;-43
2023/01/27 06:18:32;;;;;;;3.33;1.90;;;;;;;;;;5070938;28;20381;-43
2023/01/27 06:20:58;;;;;;;3.30;2.10;;;;;;;;;;5067819;28;20032;-45
2023/01/27 06:23:26;;;;;;;2.88;2.22;;;;;;;;;;5070633;28;20099;-43
2023/01/27 06:25:52;;;;;;;5.45;3.10;;;;;;;;;;5069062;28;20024;-42
2023/01/27 06:28:18;;;;;;;3.13;2.33;;;;;;;;;;5064460;28;20524;-43
2023/01/27 06:30:44;;;;;;;3.33;2.30;;;;;;;;;;5052363;28;20029;-42
2023/01/27 06:33:10;;;;;;;6.25;3.33;;;;;;;;;;5065325;28;20033;-44
2023/01/27 06:35:37;;;;;;;3.92;2.28;;;;;;;;;;5067158;28;20486;-43
2023/01/27 06:38:04;;;;;;;3.83;2.55;;;;;;;;;;5070142;28;20075;-43
2023/01/27 06:40:31;;;;;;;3.13;2.28;;;;;;;;;;5069344;28;20052;-43
2023/01/27 06:42:57;;;;;;;3.92;2.28;;;;;;;;;;5069369;28;20020;-42
2023/01/27 06:45:23;;;;;;;5.63;2.70;;;;;;;;;;5070094;28;20107;-43
2023/01/27 06:47:56;;;;;;;4.43;2.90;;;;;;;;;;5067621;28;20032;-42
2023/01/27 06:50:22;;;;;;;4.35;2.80;;;;;;;;;;5069892;28;20164;-42
2023/01/27 06:52:48;;;;;;;5.68;3.20;;;;;;;;;;5069720;28;20036;-43
2023/01/27 06:55:15;;;;;;;5.13;3.40;;;;;;;;;;5069626;28;20025;-43
2023/01/27 06:57:41;;;;;;;5.20;3.47;;;;;;;;;;5051183;28;20052;-42
2023/01/27 07:00:07;;;;;;;2.97;2.10;;;;;;;;;;5068200;28;20085;-43
2023/01/27 07:02:33;;;;;;;3.38;2.15;;;;;;;;;;5070492;28;20025;-43
2023/01/27 07:04:59;;;;;;;4.75;3.05;;;;;;;;;;5063440;28;20063;-43
2023/01/27 07:07:25;;;;;;;3.92;2.40;;;;;;;;;;5058653;28;20419;-44
2023/01/27 07:09:51;;;;;;;3.63;2.33;;;;;;;;;;5055157;28;20025;-44
2023/01/27 07:12:17;;;;;;;4.20;2.38;;;;;;;;;;5056702;28;20513;-43
2023/01/27 07:14:43;;;;;;;3.67;1.83;;;;;;;;;;5055535;28;20031;-44
2023/01/27 07:17:09;;;;;;;4.15;1.98;;;;;;;;;;5063584;28;20017;-43
2023/01/27 07:19:35;;;;;;;4.97;2.15;;;;;;;;;;5065816;28;20025;-43
2023/01/27 07:22:01;;;;;;;4.43;1.90;;;;;;;;;;5058025;28;20020;-45
2023/01/27 07:24:27;;;;;;;3.22;2.15;;;;;;;;;;5062318;28;20036;-45
2023/01/27 07:26:53;;;;;;;5.57;1.98;;;;;;;;;;5052767;28;20029;-43
2023/01/27 07:29:19;;;;;;;3.30;2.30;;;;;;;;;;5052591;28;20115;-44
2023/01/27 07:31:45;;;;;;;3.28;1.90;;;;;;;;;;5056889;28;20025;-43
2023/01/27 07:34:11;;;;;;;4.88;2.15;;;;;;;;;;5063407;28;20035;-44
2023/01/27 07:36:37;;;;;;;2.88;1.70;;;;;;;;;;5062651;28;20024;-43
2023/01/27 07:39:03;;;;;;;5.22;1.98;;;;;;;;;;5064265;28;20056;-43
2023/01/27 07:41:29;;;;;;;5.72;2.20;;;;;;;;;;5066967;28;20025;-44
2023/01/27 07:43:55;;;;;;;3.83;2.20;;;;;;;;;;5065227;28;20639;-45
2023/01/27 07:46:21;;;;;;;2.15;1.58;;;;;;;;;;5054353;28;20104;-43
2023/01/27 07:48:47;;;;;;;3.78;2.08;;;;;;;;;;5057889;28;20031;-43
2023/01/27 07:51:13;;;;;;;2.00;1.65;;;;;;;;;;5057652;28;20024;-44
2023/01/27 07:53:40;;;;;;;3.20;1.90;;;;;;;;;;5065289;28;20046;-43
2023/01/27 07:56:10;;;;;;;2.88;1.63;;;;;;;;;;5061281;28;20461;-43
2023/01/27 07:58:39;;;;;;;2.75;1.55;;;;;;;;;;5062164;28;20025;-43
2023/01/27 08:01:09;;;;;;;2.75;1.80;;;;;;;;;;5059539;28;20033;-44
2023/01/27 08:03:35;;;;;;;6.57;1.60;;;;;;;;;;5064044;28;20427;-43
2023/01/27 08:06:06;;;;;;;3.53;1.90;;;;;;;;;;5056471;28;20097;-43
2023/01/27 08:08:32;;;;;;;4.35;2.03;;;;;;;;;;5061430;28;20024;-43
2023/01/27 08:11:08;;;;;;;5.43;2.03;;;;;;;;;;5061050;28;20836;-43
2023/01/27 08:13:35;;;;;;;4.07;2.00;;;;;;;;;;5056469;28;20035;-43
2023/01/27 08:16:02;;;;;;;4.00;1.85;;;;;;;;;;5059308;28;20053;-43
2023/01/27 08:18:28;;;;;;;4.72;2.20;;;;;;;;;;5058999;28;20029;-45
2023/01/27 08:20:55;;;;;;;3.78;1.50;;;;;;;;;;5058891;28;20819;-43
2023/01/27 08:23:22;;;;;;;4.30;2.50;;;;;;;;;;5065158;28;20491;-43
2023/01/27 08:25:52;;;;;;;3.25;1.92;;;;;;;;;;5059020;28;20600;-43
2023/01/27 08:28:18;;;;;;;4.30;2.78;;;;;;;;;;5069774;28;20032;-44
2023/01/27 08:30:45;;;;;;;6.25;2.10;;;;;;;;;;5061876;28;20025;-44
2023/01/27 08:33:11;;;;;;;2.88;2.28;;;;;;;;;;5071776;28;20037;-46
2023/01/27 08:35:38;;;;;;;3.38;2.03;;;;;;;;;;5071316;28;20036;-43
2023/01/27 08:38:04;;;;;;;2.97;1.77;;;;;;;;;;5069181;28;20041;-44
2023/01/27 08:40:30;;;;;;;4.70;2.08;;;;;;;;;;5065240;28;20470;-43
2023/01/27 08:42:56;;;;;;;2.90;1.75;;;;;;;;;;5069454;28;20282;-43
2023/01/27 08:45:22;;;;;;;2.65;1.67;;;;;;;;;;5069404;28;20052;-43
2023/01/27 08:47:48;;;;;;;2.42;1.67;;;;;;;;;;5071014;28;20075;-44
2023/01/27 08:50:15;;;;;;;2.80;1.83;;;;;;;;;;5068218;28;20028;-44
2023/01/27 08:52:40;;;;;;;3.30;1.50;;;;;;;;;;5061364;28;20156;-43
2023/01/27 08:55:07;;;;;;;2.25;1.42;;;;;;;;;;5069315;28;20095;-43
2023/01/27 08:57:33;;;;;;;3.75;1.45;;;;;;;;;;5067512;28;20043;-43
2023/01/27 08:59:58;;;;;;;3.30;1.55;;;;;;;;;;5067968;28;20032;-44
2023/01/27 09:02:25;;;;;;;9.20;2.97;;;;;;;;;;5071819;28;20500;-44
2023/01/27 09:04:51;;;;;;;1.90;1.38;;;;;;;;;;5056316;28;20060;-43
2023/01/27 09:07:17;;;;;;;2.28;1.60;;;;;;;;;;5069677;28;20029;-43
2023/01/27 09:09:47;;;;;;;2.67;1.60;;;;;;;;;;5069821;28;20428;-43
2023/01/27 09:12:13;;;;;;;3.65;2.10;;;;;;;;;;5071524;28;20035;-43
2023/01/27 09:14:39;;;;;;;2.88;1.50;;;;;;;;;;5068966;28;20378;-43
2023/01/27 09:17:05;;;;;;;4.43;1.50;;;;;;;;;;5056558;28;20031;-44
2023/01/27 09:19:31;;;;;;;1.95;1.58;;;;;;;;;;5064343;28;20039;-44
2023/01/27 09:21:57;;;;;;;3.88;1.52;;;;;;;;;;5070688;28;20045;-44
2023/01/27 09:24:23;;;;;;;6.25;1.65;;;;;;;;;;5067784;28;20020;-43
2023/01/27 09:26:49;;;;;;;4.07;1.67;;;;;;;;;;5069027;28;20164;-45
2023/01/27 09:29:15;;;;;;;5.15;1.90;;;;;;;;;;5062292;28;20056;-43
2023/01/27 09:31:41;;;;;;;3.67;2.33;;;;;;;;;;5068981;28;20032;-43
2023/01/27 09:34:07;;;;;;;3.80;1.92;;;;;;;;;;5055924;28;20029;-43
2023/01/27 09:36:36;;;;;;;4.85;1.65;;;;;;;;;;5066066;28;20354;-43
2023/01/27 09:39:03;;;;;;;2.60;1.50;;;;;;;;;;5069887;28;20031;-43
2023/01/27 09:41:47;;;;;;;3.55;1.92;;;;;;;;;;5063278;28;20032;-43
2023/01/27 09:44:26;;;;;;;4.00;1.98;;;;;;;;;;5069977;28;20424;-46
2023/01/27 09:47:05;;;;;;;3.22;1.60;;;;;;;;;;5066776;28;20028;-43
2023/01/27 09:49:40;;;;;;;3.47;1.95;;;;;;;;;;5069434;28;20052;-43
2023/01/27 09:52:17;;;;;;;3.35;1.60;;;;;;;;;;5061093;28;20036;-43
2023/01/27 09:54:45;;;;;;;3.85;1.75;;;;;;;;;;5067737;28;20032;-44
2023/01/27 09:57:27;;;;;;;2.20;1.73;;;;;;;;;;5070607;28;20044;-43
2023/01/27 10:00:10;;;;;;;2.88;1.75;;;;;;;;;;5057707;28;20082;-45
2023/01/27 10:02:42;;;;;;;2.95;1.58;;;;;;;;;;5055840;28;20037;-43
2023/01/27 10:05:08;;;;;;;2.70;1.50;;;;;;;;;;5054006;28;20051;-44
2023/01/27 10:07:46;;;;;;;2.85;2.03;;;;;;;;;;5064008;28;20032;-44
2023/01/27 10:10:31;;;;;;;3.40;1.95;;;;;;;;;;5061630;28;20369;-44
2023/01/27 10:13:15;;;;;;;2.70;1.67;;;;;;;;;;5068241;28;20170;-47
2023/01/27 10:16:04;;;;;;;3.03;1.90;;;;;;;;;;5059422;28;20032;-43
2023/01/27 10:18:42;;;;;;;3.33;1.85;;;;;;;;;;5064376;28;20361;-44
2023/01/27 10:21:08;;;;;;;4.18;1.80;;;;;;;;;;5065500;28;20075;-43
2023/01/27 10:23:43;;;;;;;1.90;1.42;;;;;;;;;;5070192;28;20060;-44
2023/01/27 10:26:18;;;;;;;2.53;1.60;;;;;;;;;;5066202;28;20020;-43
2023/01/27 10:28:46;;;;;;;2.80;1.73;;;;;;;;;;5069297;28;20016;-42
2023/01/27 10:31:21;;;;;;;2.72;1.48;;;;;;;;;;5070013;28;20083;-43
2023/01/27 10:33:51;;;;;;;2.63;1.52;;;;;;;;;;5061274;28;20037;-43
2023/01/27 10:36:28;;;;;;;3.20;1.90;;;;;;;;;;5069705;28;20423;-42
2023/01/27 10:38:54;;;;;;;2.20;1.63;;;;;;;;;;5068717;28;20029;-42
2023/01/27 10:41:29;;;;;;;3.55;1.58;;;;;;;;;;5067025;28;20032;-42
2023/01/27 10:44:04;;;;;;;3.78;1.63;;;;;;;;;;5068076;28;20020;-44
2023/01/27 10:46:38;;;;;;;2.92;1.90;;;;;;;;;;5070289;28;20112;-44
2023/01/27 10:49:07;;;;;;;5.70;2.38;;;;;;;;;;5069359;28;20427;-42
2023/01/27 10:51:35;;;;;;;2.28;1.55;;;;;;;;;;5068714;28;20028;-43
2023/01/27 10:54:10;;;;;;;4.25;1.65;;;;;;;;;;5059922;28;20067;-44
2023/01/27 10:56:55;;;;;;;2.17;1.70;;;;;;;;;;5060593;28;20434;-42
2023/01/27 10:59:43;;;;;;;2.65;1.58;;;;;;;;;;5061932;28;20473;-42
2023/01/27 11:02:09;;;;;;;2.60;1.58;;;;;;;;;;5069948;28;20070;-43
2023/01/27 11:04:35;;;;;;;5.85;2.03;;;;;;;;;;5068786;28;20052;-44
2023/01/27 11:07:03;;;;;;;2.83;1.75;;;;;;;;;;5067699;28;20108;-42
2023/01/27 11:09:29;;;;;;;2.50;1.67;;;;;;;;;;5070010;28;20037;-42
2023/01/27 11:11:57;;;;;;;3.92;1.80;;;;;;;;;;5069624;28;20172;-42
2023/01/27 11:14:25;;;;;;;2.22;1.65;;;;;;;;;;5073384;28;20516;-42
2023/01/27 11:17:01;;;;;;;2.05;1.52;;;;;;;;;;5069669;28;20036;-42
2023/01/27 11:19:42;;;;;;;2.30;1.30;;;;;;;;;;5073277;28;20481;-42
2023/01/27 11:22:20;;;;;;;3.30;1.92;;;;;;;;;;5072252;28;20032;-43
2023/01/27 11:24:58;;;;;;;2.10;1.27;;;;;;;;;;5068434;28;20016;-43
2023/01/27 11:27:36;;;;;;;2.40;1.55;;;;;;;;;;5063239;28;20374;-43
2023/01/27 11:30:08;;;;;;;4.72;1.45;;;;;;;;;;5073065;28;20024;-43
2023/01/27 11:32:46;;;;;;;2.35;1.45;;;;;;;;;;5072255;28;20028;-43
2023/01/27 11:35:14;;;;;;;2.97;1.30;;;;;;;;;;5072847;28;20032;-43
2023/01/27 11:37:41;;;;;;;5.22;2.90;;;;;;;;;;5072284;28;20025;-43
2023/01/27 11:40:26;;;;;;;9.68;1.83;;;;;;;;;;5072856;28;20082;-44
2023/01/27 11:42:54;;;;;;;2.22;1.65;;;;;;;;;;5069560;28;20021;-43
2023/01/27 11:45:20;;;;;;;6.18;2.38;;;;;;;;;;5072788;28;20055;-42
2023/01/27 11:47:58;;;;;;;3.22;1.75;;;;;;;;;;5072043;28;20027;-42
2023/01/27 11:50:27;;;;;;;3.70;1.98;;;;;;;;;;5071576;28;20027;-42
2023/01/27 11:53:04;;;;;;;2.20;1.50;;;;;;;;;;5070506;28;20074;-42
2023/01/27 11:55:35;;;;;;;6.18;1.70;;;;;;;;;;5072528;28;20070;-42
2023/01/27 11:58:09;;;;;;;4.13;1.52;;;;;;;;;;5062599;28;20473;-43
2023/01/27 12:00:42;;;;;;;4.05;2.08;;;;;;;;;;5061193;28;20021;-43
2023/01/27 12:03:25;;;;;;;2.92;1.67;;;;;;;;;;5070707;28;20107;-43
2023/01/27 12:05:55;;;;;;;4.47;1.63;;;;;;;;;;5070201;28;20116;-42
2023/01/27 12:08:38;;;;;;;2.72;1.40;;;;;;;;;;5065641;28;20474;-42
2023/01/27 12:11:17;;;;;;;5.00;1.90;;;;;;;;;;5071813;28;20035;-43
2023/01/27 12:13:50;;;;;;;3.75;1.73;;;;;;;;;;5071740;28;20035;-44
2023/01/27 12:16:17;;;;;;;3.67;1.70;;;;;;;;;;5071305;28;20029;-43
2023/01/27 12:18:51;;;;;;;3.53;1.60;;;;;;;;;;5071395;28;20104;-42
2023/01/27 12:21:18;;;;;;;4.45;2.00;;;;;;;;;;5065484;28;20075;-42
2023/01/27 12:23:48;;;;;;;3.28;1.40;;;;;;;;;;5063491;28;20020;-43
2023/01/27 12:26:14;;;;;;;5.78;1.65;;;;;;;;;;5067519;28;20523;-43
2023/01/27 12:28:52;;;;;;;5.07;2.05;;;;;;;;;;5066468;28;20051;-43
2023/01/27 12:31:28;;;;;;;4.75;1.67;;;;;;;;;;5068184;28;20068;-42
2023/01/27 12:33:57;;;;;;;4.65;1.92;;;;;;;;;;5066748;28;20025;-42
2023/01/27 12:36:24;;;;;;;3.95;2.05;;;;;;;;;;5073609;28;20108;-42
2023/01/27 12:38:51;;;;;;;3.08;1.83;;;;;;;;;;5054784;28;20473;-44
2023/01/27 12:41:25;;;;;;;3.65;1.75;;;;;;;;;;5065101;28;20068;-42
2023/01/27 12:43:53;;;;;;;6.65;1.88;;;;;;;;;;5070522;28;20035;-42
2023/01/27 12:46:22;;;;;;;5.80;1.83;;;;;;;;;;5072098;28;20052;-42
2023/01/27 12:48:50;;;;;;;7.15;2.35;;;;;;;;;;5074140;28;20418;-43
2023/01/27 12:51:18;;;;;;;4.72;2.28;;;;;;;;;;5066575;28;20033;-42
2023/01/27 12:53:44;;;;;;;4.82;2.40;;;;;;;;;;5070513;28;20359;-42
2023/01/27 12:56:12;;;;;;;10.27;2.45;;;;;;;;;;5071547;28;20096;-42
2023/01/27 12:58:38;;;;;;;6.43;2.30;;;;;;;;;;5057148;28;20087;-42
2023/01/27 13:01:18;;;;;;;17.42;3.13;;;;;;;;;;5068477;28;20028;-42
2023/01/27 13:03:44;;;;;;;6.95;2.72;;;;;;;;;;5061165;28;20025;-42
2023/01/27 13:06:14;;;;;;;5.60;2.20;;;;;;;;;;5063159;28;20045;-43
2023/01/27 13:08:40;;;;;;;5.43;2.10;;;;;;;;;;5059343;28;20474;-42
2023/01/27 13:11:07;;;;;;;8.10;2.67;;;;;;;;;;5064887;28;20061;-42
2023/01/27 13:13:33;;;;;;;6.00;2.38;;;;;;;;;;5065667;28;20022;-42
2023/01/27 13:16:02;;;;;;;4.60;2.05;;;;;;;;;;5065974;28;20029;-42
2023/01/27 13:18:32;;;;;;;5.15;2.15;;;;;;;;;;5054436;28;20056;-42
2023/01/27 13:21:01;;;;;;;5.70;1.70;;;;;;;;;;5053194;28;20042;-42
2023/01/27 13:23:37;;;;;;;3.10;2.38;;;;;;;;;;5064745;28;20032;-42
2023/01/27 13:26:09;;;;;;;7.85;2.97;;;;;;;;;;5059391;28;20017;-42
2023/01/27 13:28:34;;;;;;;;;;;;;;;;;;5061132;28;20025;-42
2023/01/27 13:31:07;;;;;;;9.40;2.58;;;;;;;;;;5065081;28;19912;-42
2023/01/27 13:33:41;;;;;;;6.72;3.05;;;;;;;;;;5060229;28;20024;-42
2023/01/27 13:36:17;;;;;;;9.50;2.38;;;;;;;;;;5064350;28;20135;-43
2023/01/27 13:38:53;;;;;;;8.27;2.88;;;;;;;;;;5054984;28;20017;-42
2023/01/27 13:41:26;;;;;;;4.70;2.95;;;;;;;;;;5059224;28;20028;-42
2023/01/27 13:43:57;;;;;;;6.47;2.70;;;;;;;;;;5054955;28;20033;-45
2023/01/27 13:46:29;;;;;;;8.55;2.85;;;;;;;;;;5056299;28;20107;-42
2023/01/27 13:48:56;;;;;;;15.70;2.90;;;;;;;;;;5062344;28;20662;-45
2023/01/27 13:51:28;;;;;;;10.27;2.58;;;;;;;;;;5057936;28;20033;-44
2023/01/27 13:54:04;;;;;;;9.55;2.85;;;;;;;;;;5054208;28;20040;-43
2023/01/27 13:56:48;;;;;;;6.10;2.85;;;;;;;;;;5064929;28;20513;-45
2023/01/27 13:59:23;;;;;;;6.78;2.90;;;;;;;;;;5058070;28;20032;-44
2023/01/27 14:02:01;;;;;;;4.68;2.85;;;;;;;;;;5058137;28;20028;-44
2023/01/27 14:04:35;;;;;;;6.40;2.72;;;;;;;;;;5057527;28;20033;-44
2023/01/27 14:07:08;;;;;;;8.07;3.33;;;;;;;;;;5057543;28;20033;-45
2023/01/27 14:09:34;;;;;;;8.25;2.97;;;;;;;;;;5063370;28;20048;-45
2023/01/27 14:12:06;;;;;;;4.32;2.63;;;;;;;;;;5065176;28;20032;-44
2023/01/27 14:14:43;;;;;;;5.50;2.53;;;;;;;;;;5058840;28;20089;-44
2023/01/27 14:17:09;;;;;;;8.90;3.53;;;;;;;;;;5061754;28;20405;-44
2023/01/27 14:19:35;;;;;;;6.45;2.70;;;;;;;;;;5056236;28;20025;-44
2023/01/27 14:22:13;;;;;;;7.38;3.45;;;;;;;;;;5058122;28;20055;-44
2023/01/27 14:24:43;;;;;;;4.82;3.00;;;;;;;;;;5053698;28;20105;-44
2023/01/27 14:27:24;;;;;;;7.93;2.95;;;;;;;;;;5065008;28;20025;-45
2023/01/27 14:29:54;;;;;;;6.07;2.38;;;;;;;;;;5054064;28;20074;-44
2023/01/27 14:32:20;;;;;;;5.07;2.70;;;;;;;;;;5064339;28;20043;-44
2023/01/27 14:35:06;;;;;;;6.80;3.55;;;;;;;;;;5054335;28;20033;-44
2023/01/27 14:37:32;;;;;;;6.57;3.00;;;;;;;;;;5050495;28;20375;-48
2023/01/27 14:40:12;;;;;;;6.60;3.15;;;;;;;;;;5057686;28;20013;-44
2023/01/27 14:42:42;;;;;;;6.55;2.63;;;;;;;;;;5055573;28;20082;-45
2023/01/27 14:45:14;;;;;;;5.53;2.13;;;;;;;;;;5064026;28;20439;-44
2023/01/27 14:47:40;;;;;;;5.10;2.50;;;;;;;;;;5071300;28;20063;-44
2023/01/27 14:50:15;;;;;;;5.03;2.63;;;;;;;;;;5074228;28;20044;-44
2023/01/27 14:52:44;;;;;;;4.45;2.72;;;;;;;;;;5073282;28;20032;-44
2023/01/27 14:55:29;;;;;;;5.60;2.50;;;;;;;;;;5070895;28;20052;-46
2023/01/27 14:58:11;;;;;;;4.97;2.75;;;;;;;;;;5066315;28;20029;-45
2023/01/27 15:00:51;;;;;;;6.90;2.97;;;;;;;;;;5072882;28;20060;-45
2023/01/27 15:03:23;;;;;;;7.93;2.90;;;;;;;;;;5069576;28;20242;-45
2023/01/27 15:06:07;;;;;;;5.65;2.90;;;;;;;;;;5071002;28;20063;-46
2023/01/27 15:08:46;;;;;;;7.68;2.35;;;;;;;;;;5068848;28;20082;-44
2023/01/27 15:11:31;;;;;;;5.55;2.55;;;;;;;;;;5073988;28;20033;-44
2023/01/27 15:14:15;;;;;;;5.60;2.88;;;;;;;;;;5067086;28;20325;-43
2023/01/27 15:16:47;;;;;;;11.27;7.47;;;;;;;;;;5072589;28;20044;-44
2023/01/27 15:19:17;;;;;;;9.40;5.65;;;;;;;;;;5072660;28;20396;-44
2023/01/27 15:21:52;;;;;;;14.77;4.97;;;;;;;;;;5064605;28;20033;-44